sensor_id;sensor_type;location;lat;lon;timestamp;temperature;humidity
68011;DHT22;54794;48.348;7.878;2023-12-20T00:27:26;8.80;71.20
68011;DHT22;54794;48.348;7.878;2023-12-20T06:16:31;9.40;72.90
68011;DHT22;54794;48.348;7.878;2023-12-20T06:19:10;9.70;73.10
68011;DHT22;54794;48.348;7.878;2023-12-20T06:21:41;9.40;72.80
68011;DHT22;54794;48.348;7.878;2023-12-20T06:24:27;9.80;73.00
68011;DHT22;54794;48.348;7.878;2023-12-20T06:26:54;9.40;72.90
68011;DHT22;54794;48.348;7.878;2023-12-20T06:29:22;9.30;72.80
68011;DHT22;54794;48.348;7.878;2023-12-20T06:31:53;10.00;73.20
68011;DHT22;54794;48.348;7.878;2023-12-20T06:34:20;9.30;72.80
68011;DHT22;54794;48.348;7.878;2023-12-20T06:36:47;9.20;72.70
68011;DHT22;54794;48.348;7.878;2023-12-20T06:39:17;9.60;73.00
68011;DHT22;54794;48.348;7.878;2023-12-20T06:41:52;9.20;72.80
68011;DHT22;54794;48.348;7.878;2023-12-20T06:44:19;9.40;73.00
68011;DHT22;54794;48.348;7.878;2023-12-20T06:46:46;9.20;72.80
68011;DHT22;54794;48.348;7.878;2023-12-20T06:49:15;9.40;72.90
68011;DHT22;54794;48.348;7.878;2023-12-20T06:51:48;9.20;72.90
68011;DHT22;54794;48.348;7.878;2023-12-20T06:54:18;9.20;72.80
68011;DHT22;54794;48.348;7.878;2023-12-20T06:56:45;9.60;73.00
68011;DHT22;54794;48.348;7.878;2023-12-20T06:59:12;9.50;73.00
68011;DHT22;54794;48.348;7.878;2023-12-20T07:01:42;9.30;72.90
68011;DHT22;54794;48.348;7.878;2023-12-20T07:04:17;9.20;72.80
68011;DHT22;54794;48.348;7.878;2023-12-20T07:06:52;9.40;72.90
68011;DHT22;54794;48.348;7.878;2023-12-20T07:09:25;9.50;73.00
68011;DHT22;54794;48.348;7.878;2023-12-20T07:11:53;9.40;72.90
68011;DHT22;54794;48.348;7.878;2023-12-20T07:14:23;9.40;72.90
68011;DHT22;54794;48.348;7.878;2023-12-20T07:16:54;9.80;73.20
68011;DHT22;54794;48.348;7.878;2023-12-20T07:19:44;9.50;73.00
68011;DHT22;54794;48.348;7.878;2023-12-20T07:22:20;9.50;73.20
68011;DHT22;54794;48.348;7.878;2023-12-20T07:24:51;9.50;73.00
68011;DHT22;54794;48.348;7.878;2023-12-20T07:27:24;9.70;73.20
68011;DHT22;54794;48.348;7.878;2023-12-20T07:29:54;9.70;73.20
68011;DHT22;54794;48.348;7.878;2023-12-20T07:32:27;9.70;73.20
68011;DHT22;54794;48.348;7.878;2023-12-20T07:34:59;9.70;73.20
68011;DHT22;54794;48.348;7.878;2023-12-20T07:37:35;9.60;73.00
68011;DHT22;54794;48.348;7.878;2023-12-20T07:40:21;9.50;73.00
68011;DHT22;54794;48.348;7.878;2023-12-20T07:50:03;9.40;73.00
68011;DHT22;54794;48.348;7.878;2023-12-20T07:53:19;9.50;73.10
68011;DHT22;54794;48.348;7.878;2023-12-20T07:59:46;9.30;72.80
68011;DHT22;54794;48.348;7.878;2023-12-20T08:06:30;9.50;73.10
68011;DHT22;54794;48.348;7.878;2023-12-20T08:13:14;9.60;73.00
68011;DHT22;54794;48.348;7.878;2023-12-20T08:19:53;9.50;73.00
68011;DHT22;54794;48.348;7.878;2023-12-20T08:23:12;9.60;73.20
68011;DHT22;54794;48.348;7.878;2023-12-20T08:26:36;9.50;73.40
68011;DHT22;54794;48.348;7.878;2023-12-20T08:33:15;9.50;73.20
68011;DHT22;54794;48.348;7.878;2023-12-20T08:36:07;9.50;73.20
68011;DHT22;54794;48.348;7.878;2023-12-20T08:39:05;9.60;73.40
68011;DHT22;54794;48.348;7.878;2023-12-20T08:42:01;9.60;73.30
68011;DHT22;54794;48.348;7.878;2023-12-20T08:45:07;9.60;73.20
68011;DHT22;54794;48.348;7.878;2023-12-20T08:48:04;9.70;73.20
68011;DHT22;54794;48.348;7.878;2023-12-20T08:50:52;9.70;73.20
68011;DHT22;54794;48.348;7.878;2023-12-20T08:54:06;9.70;73.20
68011;DHT22;54794;48.348;7.878;2023-12-20T08:57:23;10.30;73.40
68011;DHT22;54794;48.348;7.878;2023-12-20T09:00:13;9.60;73.10
68011;DHT22;54794;48.348;7.878;2023-12-20T09:03:01;9.70;73.10
68011;DHT22;54794;48.348;7.878;2023-12-20T09:06:21;9.80;73.20
68011;DHT22;54794;48.348;7.878;2023-12-20T09:09:46;9.50;73.20
68011;DHT22;54794;48.348;7.878;2023-12-20T09:16:31;9.50;73.20
68011;DHT22;54794;48.348;7.878;2023-12-20T09:19:41;9.90;73.40
68011;DHT22;54794;48.348;7.878;2023-12-20T09:22:51;9.70;73.30
68011;DHT22;54794;48.348;7.878;2023-12-20T09:26:22;9.80;73.10
68011;DHT22;54794;48.348;7.878;2023-12-20T09:29:29;9.80;73.20
68011;DHT22;54794;48.348;7.878;2023-12-20T09:32:38;9.70;73.00
68011;DHT22;54794;48.348;7.878;2023-12-20T09:35:13;9.60;73.00
68011;DHT22;54794;48.348;7.878;2023-12-20T09:38:25;9.70;73.00
68011;DHT22;54794;48.348;7.878;2023-12-20T09:41:48;9.70;73.10
68011;DHT22;54794;48.348;7.878;2023-12-20T09:45:08;9.60;73.00
68011;DHT22;54794;48.348;7.878;2023-12-20T09:48:02;9.80;73.10
68011;DHT22;54794;48.348;7.878;2023-12-20T09:51:15;9.80;73.00
68011;DHT22;54794;48.348;7.878;2023-12-20T09:54:52;9.80;73.00
68011;DHT22;54794;48.348;7.878;2023-12-20T09:58:23;9.80;72.90
68011;DHT22;54794;48.348;7.878;2023-12-20T10:05:03;9.80;73.00
68011;DHT22;54794;48.348;7.878;2023-12-20T10:07:49;9.50;72.90
68011;DHT22;54794;48.348;7.878;2023-12-20T10:11:34;9.90;73.10
68011;DHT22;54794;48.348;7.878;2023-12-20T10:14:32;9.90;72.60
68011;DHT22;54794;48.348;7.878;2023-12-20T10:17:05;9.90;72.50
68011;DHT22;54794;48.348;7.878;2023-12-20T10:20:13;9.70;72.10
68011;DHT22;54794;48.348;7.878;2023-12-20T10:23:45;9.90;72.00
68011;DHT22;54794;48.348;7.878;2023-12-20T10:27:07;9.90;72.00
68011;DHT22;54794;48.348;7.878;2023-12-20T10:30:14;10.20;72.10
68011;DHT22;54794;48.348;7.878;2023-12-20T10:32:58;9.90;72.00
68011;DHT22;54794;48.348;7.878;2023-12-20T10:36:40;9.80;71.90
68011;DHT22;54794;48.348;7.878;2023-12-20T10:40:29;9.40;71.50
68011;DHT22;54794;48.348;7.878;2023-12-20T10:48:12;9.90;71.90
68011;DHT22;54794;48.348;7.878;2023-12-20T10:51:34;9.80;71.60
68011;DHT22;54794;48.348;7.878;2023-12-20T10:54:49;9.80;71.30
68011;DHT22;54794;48.348;7.878;2023-12-20T10:57:45;9.80;71.40
68011;DHT22;54794;48.348;7.878;2023-12-20T11:01:09;10.20;71.50
68011;DHT22;54794;48.348;7.878;2023-12-20T11:04:12;9.60;71.00
68011;DHT22;54794;48.348;7.878;2023-12-20T11:10:57;9.80;71.00
68011;DHT22;54794;48.348;7.878;2023-12-20T11:18:33;9.80;71.00
68011;DHT22;54794;48.348;7.878;2023-12-20T11:21:33;9.80;70.90
68011;DHT22;54794;48.348;7.878;2023-12-20T11:24:52;9.80;70.70
68011;DHT22;54794;48.348;7.878;2023-12-20T11:28:42;9.70;70.60
68011;DHT22;54794;48.348;7.878;2023-12-20T11:31:43;9.90;70.90
68011;DHT22;54794;48.348;7.878;2023-12-20T11:38:58;9.90;70.20
68011;DHT22;54794;48.348;7.878;2023-12-20T11:45:36;9.90;69.80
68011;DHT22;54794;48.348;7.878;2023-12-20T11:48:08;9.90;70.00
68011;DHT22;54794;48.348;7.878;2023-12-20T11:50:40;9.70;70.00
68011;DHT22;54794;48.348;7.878;2023-12-20T11:53:07;10.20;70.40
68011;DHT22;54794;48.348;7.878;2023-12-20T11:55:34;9.80;70.00
68011;DHT22;54794;48.348;7.878;2023-12-20T11:58:04;10.10;70.30
68011;DHT22;54794;48.348;7.878;2023-12-20T12:00:31;10.40;70.10
68011;DHT22;54794;48.348;7.878;2023-12-20T12:03:01;10.00;69.90
68011;DHT22;54794;48.348;7.878;2023-12-20T12:05:31;9.80;69.30
68011;DHT22;54794;48.348;7.878;2023-12-20T12:08:09;10.00;69.60
68011;DHT22;54794;48.348;7.878;2023-12-20T12:10:37;10.00;70.20
68011;DHT22;54794;48.348;7.878;2023-12-20T12:13:24;10.00;69.70
68011;DHT22;54794;48.348;7.878;2023-12-20T12:16:16;10.00;69.40
68011;DHT22;54794;48.348;7.878;2023-12-20T12:19:24;10.10;69.10
68011;DHT22;54794;48.348;7.878;2023-12-20T12:22:03;9.80;68.80
68011;DHT22;54794;48.348;7.878;2023-12-20T12:24:51;10.50;69.20
68011;DHT22;54794;48.348;7.878;2023-12-20T12:27:44;10.50;69.50
68011;DHT22;54794;48.348;7.878;2023-12-20T12:33:58;10.00;69.10
68011;DHT22;54794;48.348;7.878;2023-12-20T12:36:44;9.90;69.20
68011;DHT22;54794;48.348;7.878;2023-12-20T12:39:44;10.10;69.50
68011;DHT22;54794;48.348;7.878;2023-12-20T12:42:44;10.20;68.80
68011;DHT22;54794;48.348;7.878;2023-12-20T12:45:39;10.20;69.10
68011;DHT22;54794;48.348;7.878;2023-12-20T12:48:25;10.20;69.20
68011;DHT22;54794;48.348;7.878;2023-12-20T12:51:01;10.00;69.10
68011;DHT22;54794;48.348;7.878;2023-12-20T12:57:32;10.20;69.00
68011;DHT22;54794;48.348;7.878;2023-12-20T13:00:13;11.00;69.60
68011;DHT22;54794;48.348;7.878;2023-12-20T13:03:06;10.20;68.50
68011;DHT22;54794;48.348;7.878;2023-12-20T13:05:55;10.20;68.80
68011;DHT22;54794;48.348;7.878;2023-12-20T13:08:55;10.30;68.90
68011;DHT22;54794;48.348;7.878;2023-12-20T13:11:51;10.30;68.50
68011;DHT22;54794;48.348;7.878;2023-12-20T13:14:42;10.30;68.20
68011;DHT22;54794;48.348;7.878;2023-12-20T13:17:49;9.80;68.20
68011;DHT22;54794;48.348;7.878;2023-12-20T13:23:30;10.20;68.20
68011;DHT22;54794;48.348;7.878;2023-12-20T13:26:20;10.30;67.90
68011;DHT22;54794;48.348;7.878;2023-12-20T13:29:07;9.90;68.00
68011;DHT22;54794;48.348;7.878;2023-12-20T13:32:00;10.20;68.30
68011;DHT22;54794;48.348;7.878;2023-12-20T13:34:36;10.30;68.10
68011;DHT22;54794;48.348;7.878;2023-12-20T13:37:32;9.50;67.20
68011;DHT22;54794;48.348;7.878;2023-12-20T13:40:06;10.20;68.40
68011;DHT22;54794;48.348;7.878;2023-12-20T13:43:30;10.10;68.40
68011;DHT22;54794;48.348;7.878;2023-12-20T13:46:22;10.10;68.10
68011;DHT22;54794;48.348;7.878;2023-12-20T13:49:23;10.10;68.10
68011;DHT22;54794;48.348;7.878;2023-12-20T13:56:05;10.10;68.40
68011;DHT22;54794;48.348;7.878;2023-12-20T13:59:43;10.20;68.50
68011;DHT22;54794;48.348;7.878;2023-12-20T14:02:42;10.30;68.50
68011;DHT22;54794;48.348;7.878;2023-12-20T14:05:49;10.00;68.40
68011;DHT22;54794;48.348;7.878;2023-12-20T14:08:59;10.10;68.60
68011;DHT22;54794;48.348;7.878;2023-12-20T14:11:58;9.80;68.40
68011;DHT22;54794;48.348;7.878;2023-12-20T14:14:48;9.80;68.50
68011;DHT22;54794;48.348;7.878;2023-12-20T14:17:47;9.90;68.50
68011;DHT22;54794;48.348;7.878;2023-12-20T14:21:15;9.80;68.00
68011;DHT22;54794;48.348;7.878;2023-12-20T14:24:06;10.00;68.10
68011;DHT22;54794;48.348;7.878;2023-12-20T14:27:35;10.00;68.40
68011;DHT22;54794;48.348;7.878;2023-12-20T14:30:57;10.30;67.90
68011;DHT22;54794;48.348;7.878;2023-12-20T14:33:58;10.00;68.50
68011;DHT22;54794;48.348;7.878;2023-12-20T14:37:49;10.00;68.20
68011;DHT22;54794;48.348;7.878;2023-12-20T14:40:33;9.90;68.20
68011;DHT22;54794;48.348;7.878;2023-12-20T14:47:04;9.70;68.10
68011;DHT22;54794;48.348;7.878;2023-12-20T14:49:50;10.10;68.30
68011;DHT22;54794;48.348;7.878;2023-12-20T14:52:38;9.80;68.50
68011;DHT22;54794;48.348;7.878;2023-12-20T14:55:24;9.80;68.30
68011;DHT22;54794;48.348;7.878;2023-12-20T14:58:13;9.90;68.60
68011;DHT22;54794;48.348;7.878;2023-12-20T15:01:14;9.80;68.60
68011;DHT22;54794;48.348;7.878;2023-12-20T15:07:18;9.80;68.50
68011;DHT22;54794;48.348;7.878;2023-12-20T15:09:48;9.80;68.60
68011;DHT22;54794;48.348;7.878;2023-12-20T15:12:40;10.00;68.60
68011;DHT22;54794;48.348;7.878;2023-12-20T15:15:25;9.50;68.40
68011;DHT22;54794;48.348;7.878;2023-12-20T15:18:18;9.70;68.60
68011;DHT22;54794;48.348;7.878;2023-12-20T15:21:25;10.30;68.70
68011;DHT22;54794;48.348;7.878;2023-12-20T15:24:39;9.70;68.50
68011;DHT22;54794;48.348;7.878;2023-12-20T15:27:31;9.60;68.50
68011;DHT22;54794;48.348;7.878;2023-12-20T15:30:05;9.60;68.50
68011;DHT22;54794;48.348;7.878;2023-12-20T15:33:03;9.60;68.40
68011;DHT22;54794;48.348;7.878;2023-12-20T15:35:35;9.90;68.70
68011;DHT22;54794;48.348;7.878;2023-12-20T15:38:26;10.40;69.00
68011;DHT22;54794;48.348;7.878;2023-12-20T15:41:02;9.40;68.50
68011;DHT22;54794;48.348;7.878;2023-12-20T16:12:26;9.50;68.50
68011;DHT22;54794;48.348;7.878;2023-12-20T16:58:04;9.20;68.70
68011;DHT22;54794;48.348;7.878;2023-12-20T17:00:51;9.20;68.70
68011;DHT22;54794;48.348;7.878;2023-12-20T17:04:21;9.10;68.60
68011;DHT22;54794;48.348;7.878;2023-12-20T17:07:56;9.10;68.80
68011;DHT22;54794;48.348;7.878;2023-12-20T17:10:26;9.20;68.90
68011;DHT22;54794;48.348;7.878;2023-12-20T17:20:07;9.20;68.60
68011;DHT22;54794;48.348;7.878;2023-12-20T17:27:51;9.20;68.90
68011;DHT22;54794;48.348;7.878;2023-12-20T17:31:00;8.90;69.20
